Time;durP1;ratioP1;P1;durP2;ratioP2;P2;SDS_P1;SDS_P2;PMS_P1;PMS_P2;Temp;Humidity;BMP_temperature;BMP_pressure;BME280_temperature;BME280_humidity;BME280_pressure;Samples;Min_cycle;Max_cycle;Signal;HPM_P1;HPM_P2
2023/03/29 00:00:48;;;;;;;8.45;3.30;;;;;;;-3.07;62.05;100652.70;1722921;83;25470;-63
2023/03/29 00:03:17;;;;;;;5.72;3.05;;;;;;;-3.07;62.25;100655.34;1722857;83;25573;-59
2023/03/29 00:05:43;;;;;;;6.60;3.52;;;;;;;-3.06;62.34;100656.17;1722742;82;25554;-58
2023/03/29 00:08:13;;;;;;;7.30;4.00;;;;;;;-3.08;62.26;100656.88;1722784;83;27376;-59
2023/03/29 00:10:38;;;;;;;6.22;4.00;;;;;;;-3.10;62.29;100662.41;1722285;83;25477;-58
2023/03/29 00:13:04;;;;;;;9.85;3.25;;;;;;;-3.11;62.26;100666.06;1722837;83;25588;-59
2023/03/29 00:15:31;;;;;;;10.18;3.50;;;;;;;-3.14;62.25;100666.47;1722739;83;27588;-58
2023/03/29 00:17:58;;;;;;;5.75;3.67;;;;;;;-3.14;62.39;100665.15;1722821;83;25603;-58
2023/03/29 00:20:24;;;;;;;5.58;3.47;;;;;;;-3.16;62.45;100667.72;1722812;83;27504;-59
2023/03/29 00:22:50;;;;;;;9.95;3.50;;;;;;;-3.15;62.45;100662.70;1722696;83;26010;-59
2023/03/29 00:25:17;;;;;;;8.73;3.27;;;;;;;-3.15;62.56;100662.70;1722787;83;25223;-59
2023/03/29 00:27:44;;;;;;;10.13;3.87;;;;;;;-3.16;62.61;100657.94;1722797;83;25581;-59
2023/03/29 00:30:13;;;;;;;6.40;3.30;;;;;;;-3.16;62.52;100657.94;1722725;83;25395;-59
2023/03/29 00:32:41;;;;;;;7.75;3.35;;;;;;;-3.15;62.65;100656.92;1722847;83;28018;-60
2023/03/29 00:35:09;;;;;;;7.20;3.25;;;;;;;-3.16;62.60;100662.42;1722698;83;25562;-60
2023/03/29 00:37:37;;;;;;;5.53;3.22;;;;;;;-3.18;62.59;100658.66;1722806;83;25608;-59
2023/03/29 00:40:08;;;;;;;5.67;3.83;;;;;;;-3.21;62.52;100657.75;1722782;83;25398;-60
2023/03/29 00:42:35;;;;;;;5.80;3.40;;;;;;;-3.22;62.70;100656.11;1722924;83;25208;-59
2023/03/29 00:45:13;;;;;;;5.83;3.08;;;;;;;-3.24;62.66;100658.96;1722764;83;27321;-60
2023/03/29 00:47:47;;;;;;;7.65;3.42;;;;;;;-3.26;62.79;100658.37;1722639;83;25509;-59
2023/03/29 00:50:24;;;;;;;14.50;4.17;;;;;;;-3.27;62.72;100655.92;1722786;83;25535;-59
2023/03/29 00:53:04;;;;;;;6.87;3.77;;;;;;;-3.30;62.66;100658.98;1722805;83;25611;-60
2023/03/29 00:55:38;;;;;;;9.55;3.42;;;;;;;-3.32;62.90;100668.97;1722870;83;25600;-59
2023/03/29 00:58:11;;;;;;;5.40;3.17;;;;;;;-3.35;63.03;100668.88;1722905;83;27909;-59
2023/03/29 01:00:51;;;;;;;5.75;3.20;;;;;;;-3.35;62.97;100668.05;1722711;83;25458;-60
2023/03/29 01:03:23;;;;;;;;;;;;;;;-3.37;63.04;100673.58;1725355;83;25463;-60
2023/03/29 01:05:48;;;;;;;;;;;;;;;-3.38;62.98;100672.74;1725218;83;25623;-60
2023/03/29 01:08:32;;;;;;;7.85;3.47;;;;;;;-3.38;62.96;100667.97;1696230;83;25606;-60
2023/03/29 01:11:15;;;;;;;10.43;3.80;;;;;;;-3.40;63.01;100673.47;1722780;83;27384;-60
2023/03/29 01:13:59;;;;;;;6.50;2.95;;;;;;;-3.44;63.12;100672.75;1722847;83;25431;-61
2023/03/29 01:16:29;;;;;;;5.33;3.35;;;;;;;-3.45;63.06;100669.31;1722830;83;25439;-59
2023/03/29 01:19:01;;;;;;;7.83;3.27;;;;;;;-3.46;63.20;100667.67;1722870;83;25457;-59
2023/03/29 01:21:36;;;;;;;7.95;3.67;;;;;;;-3.49;63.25;100662.81;1722849;83;25462;-59
2023/03/29 01:24:30;;;;;;;6.95;3.67;;;;;;;-3.48;63.24;100664.95;1722807;83;27337;-60
2023/03/29 01:27:41;;;;;;;10.58;3.85;;;;;;;-3.48;63.36;100664.95;1722681;83;25471;-60
2023/03/29 01:30:26;;;;;;;6.55;3.37;;;;;;;-3.49;63.33;100668.11;1722859;83;25465;-59
2023/03/29 01:33:22;;;;;;;6.58;3.37;;;;;;;-3.49;63.26;100672.08;1681253;85;26249;-60
2023/03/29 01:36:07;;;;;;;5.78;3.20;;;;;;;-3.52;63.31;100661.91;1659901;86;25462;-59
2023/03/29 01:38:40;;;;;;;12.33;4.03;;;;;;;-3.54;63.32;100664.44;1657965;86;27468;-60
2023/03/29 01:41:11;;;;;;;7.22;3.85;;;;;;;-3.57;63.32;100670.45;1659792;86;25668;-59
2023/03/29 01:43:52;;;;;;;10.23;3.12;;;;;;;-3.59;63.54;100667.72;1659810;86;25580;-59
2023/03/29 01:46:46;;;;;;;5.87;3.20;;;;;;;-3.61;63.62;100676.34;1680554;85;25618;-59
2023/03/29 01:49:23;;;;;;;8.38;3.92;;;;;;;-3.63;63.68;100669.12;1659860;86;25669;-60
2023/03/29 01:51:58;;;;;;;5.35;3.47;;;;;;;-3.65;63.67;100669.85;1659816;86;27813;-59
2023/03/29 01:54:30;;;;;;;6.47;3.62;;;;;;;-3.67;63.98;100671.37;1659703;86;25768;-60
2023/03/29 01:56:58;;;;;;;7.53;4.12;;;;;;;-3.67;63.94;100678.51;1659471;86;25607;-61
2023/03/29 01:59:28;;;;;;;9.33;4.20;;;;;;;-3.70;64.08;100676.27;1659926;86;25657;-60
2023/03/29 02:02:00;;;;;;;5.95;3.20;;;;;;;-3.71;64.15;100677.27;1659941;86;25500;-60
2023/03/29 02:04:33;;;;;;;7.92;3.77;;;;;;;-3.72;64.10;100677.79;1659860;86;27324;-60
2023/03/29 02:07:04;;;;;;;8.35;3.65;;;;;;;-3.73;64.34;100677.99;1659721;86;25672;-61
2023/03/29 02:09:34;;;;;;;13.20;4.83;;;;;;;-3.76;64.38;100671.30;1680988;84;25444;-60
2023/03/29 02:12:02;;;;;;;;;;;;;;;-3.76;64.48;100680.55;1707319;84;25400;-61
2023/03/29 02:14:29;;;;;;;6.62;3.37;;;;;;;-3.77;64.56;100677.08;1705013;84;25620;-60
2023/03/29 02:16:55;;;;;;;6.87;3.37;;;;;;;-3.81;64.65;100677.71;1704818;84;27319;-61
2023/03/29 02:19:26;;;;;;;5.53;3.23;;;;;;;-3.83;64.66;100676.59;1704739;84;29018;-61
2023/03/29 02:22:09;;;;;;;10.15;4.00;;;;;;;-3.84;64.84;100683.40;1704859;84;25570;-61
2023/03/29 02:24:39;;;;;;;6.17;3.80;;;;;;;-3.87;64.96;100685.92;1704827;84;25442;-60
2023/03/29 02:27:06;;;;;;;9.78;4.40;;;;;;;-3.88;65.05;100686.95;1704891;84;25432;-60
2023/03/29 02:29:33;;;;;;;9.38;4.45;;;;;;;-3.90;65.04;100682.36;1704804;84;27319;-60
2023/03/29 02:32:08;;;;;;;9.25;4.72;;;;;;;-3.91;65.25;100686.04;1704678;84;25611;-60
2023/03/29 02:34:46;;;;;;;7.65;4.17;;;;;;;-3.93;65.46;100686.76;1704838;84;25541;-60
2023/03/29 02:37:16;;;;;;;15.25;5.35;;;;;;;-3.95;65.46;100686.95;1704275;84;25413;-60
2023/03/29 02:39:47;;;;;;;11.73;4.80;;;;;;;-3.95;65.62;100688.77;1704900;84;25643;-60
2023/03/29 02:42:19;;;;;;;11.55;4.70;;;;;;;-3.96;65.45;100684.00;1704846;84;27314;-60
2023/03/29 02:44:49;;;;;;;10.38;5.42;;;;;;;-3.99;65.55;100685.72;1704939;84;25580;-60
2023/03/29 02:47:24;;;;;;;13.50;5.92;;;;;;;-4.00;65.77;100687.23;1704974;84;25486;-60
2023/03/29 02:49:52;;;;;;;13.32;5.83;;;;;;;-4.02;65.67;100685.31;1704948;84;25419;-60
2023/03/29 02:52:25;;;;;;;15.18;7.05;;;;;;;-4.03;65.88;100683.70;1704915;84;25552;-60
2023/03/29 02:54:55;;;;;;;17.27;6.83;;;;;;;-4.07;65.92;100679.83;1704994;84;27312;-60
2023/03/29 02:57:25;;;;;;;13.75;6.20;;;;;;;-4.09;66.07;100688.47;1686610;84;25429;-58
2023/03/29 02:59:52;;;;;;;;;;;;;;;-4.11;66.06;100683.90;1707345;84;25629;-60
2023/03/29 03:02:18;;;;;;;19.40;7.15;;;;;;;-4.14;66.23;100690.38;1704952;84;25383;-60
2023/03/29 03:04:45;;;;;;;14.33;6.15;;;;;;;-4.16;66.45;100687.94;1704970;83;25454;-60
2023/03/29 03:07:12;;;;;;;14.60;6.87;;;;;;;-4.18;66.61;100682.05;1703857;83;27400;-61
2023/03/29 03:09:40;;;;;;;18.25;6.92;;;;;;;-4.20;66.80;100684.61;1703637;84;25612;-60
2023/03/29 03:12:08;;;;;;;15.88;5.97;;;;;;;-4.21;66.82;100687.73;1703693;83;25628;-60
2023/03/29 03:14:35;;;;;;;18.65;6.08;;;;;;;-4.22;67.00;100687.94;1703677;83;25565;-58
2023/03/29 03:17:02;;;;;;;10.75;5.05;;;;;;;-4.24;66.98;100689.48;1703729;83;25573;-61
2023/03/29 03:19:28;;;;;;;9.58;4.97;;;;;;;-4.27;67.15;100689.88;1703706;84;27337;-60
2023/03/29 03:21:55;;;;;;;12.13;5.08;;;;;;;-4.30;67.03;100690.27;1703595;84;27200;-59
2023/03/29 03:24:23;;;;;;;9.68;4.53;;;;;;;-4.33;67.30;100688.83;1703677;83;25487;-59
2023/03/29 03:26:49;;;;;;;14.25;5.20;;;;;;;-4.35;67.50;100687.42;1703668;83;25461;-60
2023/03/29 03:29:16;;;;;;;10.85;4.97;;;;;;;-4.39;67.58;100690.97;1703671;84;25581;-59
2023/03/29 03:31:43;;;;;;;8.73;4.03;;;;;;;-4.40;67.85;100686.69;1703637;84;27387;-58
2023/03/29 03:34:10;;;;;;;15.58;4.90;;;;;;;-4.41;67.90;100688.21;1689450;84;25423;-59
2023/03/29 03:36:37;;;;;;;11.00;4.42;;;;;;;-4.43;68.14;100684.45;1703678;83;25538;-59
2023/03/29 03:39:05;;;;;;;10.68;4.58;;;;;;;-4.45;68.50;100686.48;1703624;84;25386;-59
2023/03/29 03:41:34;;;;;;;6.17;3.20;;;;;;;-4.46;68.47;100682.23;1703800;84;25483;-60
2023/03/29 03:44:01;;;;;;;;;;;;;;;-4.48;68.55;100682.11;1706236;83;27435;-60
2023/03/29 03:46:28;;;;;;;10.45;4.70;;;;;;;-4.47;68.71;100685.88;1703569;84;25612;-60
2023/03/29 03:48:55;;;;;;;12.30;4.85;;;;;;;-4.47;69.17;100689.03;1703636;84;25616;-60
2023/03/29 03:51:22;;;;;;;9.90;5.08;;;;;;;-4.47;69.71;100694.31;1703638;83;25532;-60
2023/03/29 03:53:48;;;;;;;12.18;4.85;;;;;;;-4.47;69.26;100692.98;1703757;83;25461;-60
2023/03/29 03:56:15;;;;;;;9.78;4.30;;;;;;;-4.48;69.38;100692.67;1703678;84;27426;-60
2023/03/29 03:58:42;;;;;;;13.10;5.30;;;;;;;-4.50;69.39;100696.31;1703673;84;25442;-60
2023/03/29 04:01:08;;;;;;;9.75;4.60;;;;;;;-4.50;69.41;100697.63;1703722;84;25609;-61
2023/03/29 04:03:36;;;;;;;12.30;5.55;;;;;;;-4.51;69.71;100701.30;1703765;84;25389;-60
2023/03/29 04:06:04;;;;;;;12.90;5.45;;;;;;;-4.51;69.99;100701.30;1705059;82;25434;-61
2023/03/29 04:08:32;;;;;;;11.15;5.40;;;;;;;-4.50;69.93;100702.11;1722856;83;27398;-60
2023/03/29 04:11:00;;;;;;;15.63;5.72;;;;;;;-4.52;69.88;100706.78;1722738;83;25402;-60
2023/03/29 04:13:28;;;;;;;11.38;5.85;;;;;;;-4.52;69.91;100713.38;1722770;83;25572;-60
2023/03/29 04:15:55;;;;;;;11.00;5.22;;;;;;;-4.54;70.01;100716.22;1722790;83;25677;-61
2023/03/29 04:18:23;;;;;;;14.63;5.25;;;;;;;-4.55;70.17;100721.18;1722841;83;25485;-60
2023/03/29 04:20:50;;;;;;;12.18;6.35;;;;;;;-4.55;70.22;100718.54;1722873;83;27396;-60
2023/03/29 04:23:17;;;;;;;11.18;5.80;;;;;;;-4.54;70.56;100720.18;1722716;83;25635;-60
2023/03/29 04:25:44;;;;;;;12.45;5.75;;;;;;;-4.56;70.62;100715.61;1722873;83;25558;-60
2023/03/29 04:28:12;;;;;;;11.70;5.72;;;;;;;-4.56;70.53;100722.73;1722802;83;25628;-60
2023/03/29 04:30:39;;;;;;;13.20;5.60;;;;;;;-4.56;70.60;100723.53;1722993;83;25467;-61
2023/03/29 04:33:05;;;;;;;11.35;5.10;;;;;;;-4.56;70.83;100730.65;1722886;83;27882;-60
2023/03/29 04:35:32;;;;;;;16.97;5.47;;;;;;;-4.58;70.75;100731.33;1722766;83;25864;-60
2023/03/29 04:37:59;;;;;;;13.58;5.70;;;;;;;-4.57;71.21;100733.77;1722784;83;25407;-59
2023/03/29 04:40:25;;;;;;;17.75;5.83;;;;;;;-4.56;71.39;100732.77;1722791;83;25515;-59
2023/03/29 04:42:51;;;;;;;12.25;5.78;;;;;;;-4.54;71.64;100735.22;1722801;83;25463;-59
2023/03/29 04:45:17;;;;;;;10.85;5.92;;;;;;;-4.52;71.72;100737.95;1722755;83;27384;-55
2023/03/29 04:47:45;;;;;;;12.80;5.67;;;;;;;-4.50;71.57;100735.11;1722680;83;25639;-56
2023/03/29 04:50:13;;;;;;;11.80;5.30;;;;;;;-4.48;71.91;100728.31;1722812;83;25567;-54
2023/03/29 04:52:40;;;;;;;11.15;5.47;;;;;;;-4.47;71.70;100726.80;1722972;83;25917;-57
2023/03/29 04:55:10;;;;;;;14.33;5.83;;;;;;;-4.45;71.86;100735.84;1722819;83;25600;-54
2023/03/29 04:57:36;;;;;;;11.38;4.90;;;;;;;-4.43;72.19;100739.91;1722818;83;27910;-54
2023/03/29 05:00:13;;;;;;;7.85;4.65;;;;;;;-4.40;72.31;100730.78;1722713;83;25924;-55
2023/03/29 05:02:36;;;;;;;10.13;4.97;;;;;;;-4.38;72.64;100728.23;1722010;83;25379;-56
2023/03/29 05:05:04;;;;;;;10.28;4.25;;;;;;;-4.32;72.60;100721.36;1722737;83;25647;-55
2023/03/29 05:07:30;;;;;;;8.18;4.30;;;;;;;-4.27;73.08;100728.66;1722881;82;25561;-53
2023/03/29 05:09:56;;;;;;;9.90;5.30;;;;;;;-4.22;73.23;100726.23;1723072;83;28068;-57
2023/03/29 05:12:24;;;;;;;14.80;4.62;;;;;;;-4.17;73.41;100720.68;1723015;83;25618;-58
2023/03/29 05:14:52;;;;;;;8.98;4.50;;;;;;;-4.10;73.50;100725.14;1723070;83;25453;-57
2023/03/29 05:17:18;;;;;;;10.90;4.08;;;;;;;-4.02;73.65;100731.08;1723040;83;25487;-58
2023/03/29 05:19:46;;;;;;;8.73;4.08;;;;;;;-3.93;73.81;100734.33;1723138;83;25435;-57
2023/03/29 05:22:14;;;;;;;10.70;4.12;;;;;;;-3.86;73.81;100733.82;1723037;83;29450;-54
2023/03/29 05:24:41;;;;;;;10.60;4.37;;;;;;;-3.77;73.83;100732.59;1722965;83;25414;-57
2023/03/29 05:27:08;;;;;;;8.58;3.83;;;;;;;-3.68;73.89;100741.64;1723027;83;25521;-54
2023/03/29 05:29:36;;;;;;;8.90;4.30;;;;;;;-3.60;73.89;100739.61;1722965;83;25532;-58
2023/03/29 05:32:04;;;;;;;10.23;4.65;;;;;;;-3.49;73.96;100730.75;1722996;83;25548;-60
2023/03/29 05:34:30;;;;;;;10.38;4.20;;;;;;;-3.39;74.06;100735.95;1722864;83;27376;-60
2023/03/29 05:36:58;;;;;;;14.78;4.85;;;;;;;-3.28;74.16;100730.53;1722046;83;25731;-59
2023/03/29 05:39:24;;;;;;;8.53;4.03;;;;;;;-3.14;74.15;100733.95;1722141;83;25632;-59
2023/03/29 05:41:51;;;;;;;7.92;4.30;;;;;;;-3.01;74.10;100729.15;1722130;83;25707;-58
2023/03/29 05:44:20;;;;;;;9.93;4.40;;;;;;;-2.87;74.07;100733.37;1722155;83;25682;-60
2023/03/29 05:46:46;;;;;;;6.25;4.08;;;;;;;-2.71;74.05;100736.56;1722138;83;27349;-58
2023/03/29 05:49:13;;;;;;;6.33;4.10;;;;;;;-2.52;73.93;100738.33;1722044;83;25936;-59
2023/03/29 05:51:41;;;;;;;8.25;3.80;;;;;;;-2.35;73.82;100740.47;1722842;83;25463;-59
2023/03/29 05:54:08;;;;;;;8.78;4.85;;;;;;;-2.18;73.49;100740.78;1723098;83;34611;-59
2023/03/29 05:56:35;;;;;;;12.00;4.25;;;;;;;-1.99;73.12;100739.02;1722970;83;25541;-60
2023/03/29 05:59:03;;;;;;;8.88;4.15;;;;;;;-1.83;72.98;100743.02;1722294;83;27462;-60
2023/03/29 06:01:31;;;;;;;13.65;4.17;;;;;;;-1.65;72.84;100742.24;1721906;83;25730;-60
2023/03/29 06:03:59;;;;;;;9.08;4.45;;;;;;;-1.47;72.48;100742.82;1723061;83;25398;-60
2023/03/29 06:06:25;;;;;;;8.90;4.25;;;;;;;-1.24;72.20;100739.03;1722995;83;25393;-60
2023/03/29 06:08:52;;;;;;;11.48;5.17;;;;;;;-1.00;72.32;100748.49;1722757;83;25228;-60
2023/03/29 06:11:18;;;;;;;9.58;4.75;;;;;;;-0.73;72.05;100750.33;1722784;83;26834;-59
2023/03/29 06:13:44;;;;;;;15.68;5.22;;;;;;;-0.51;71.70;100746.69;1722609;83;25626;-59
2023/03/29 06:16:12;;;;;;;8.80;4.83;;;;;;;-0.26;71.38;100740.42;1722813;83;25389;-59
2023/03/29 06:18:40;;;;;;;9.65;4.58;;;;;;;-0.05;70.97;100742.59;1722862;83;25426;-60
2023/03/29 06:21:08;;;;;;;15.68;5.37;;;;;;;0.24;70.68;100743.27;1722924;83;25650;-58
2023/03/29 06:23:35;;;;;;;18.05;5.62;;;;;;;0.50;69.73;100750.02;1722913;83;27493;-57
2023/03/29 06:26:04;;;;;;;10.38;5.75;;;;;;;0.72;69.36;100746.27;1722764;83;25600;-59
2023/03/29 06:28:32;;;;;;;;;;;;;;;1.01;69.46;100756.48;1725435;83;25592;-60
2023/03/29 06:31:00;;;;;;;10.10;5.03;;;;;;;1.27;68.52;100757.82;1722897;83;25437;-60
2023/03/29 06:33:31;;;;;;;11.33;4.80;;;;;;;1.52;67.67;100759.39;1723154;83;25601;-59
2023/03/29 06:35:58;;;;;;;;;;;;;;;1.73;66.76;100743.23;1725480;83;27379;-60
2023/03/29 06:38:27;;;;;;;10.63;4.58;;;;;;;1.97;66.63;100756.47;1722832;83;25662;-59
2023/03/29 06:41:04;;;;;;;9.88;4.95;;;;;;;2.20;65.92;100756.88;1723103;83;25396;-59
2023/03/29 06:43:31;;;;;;;11.03;5.30;;;;;;;2.44;65.38;100758.86;1722946;83;25489;-61
2023/03/29 06:46:00;;;;;;;8.38;4.47;;;;;;;2.78;65.62;100758.30;1722949;83;25204;-59
2023/03/29 06:48:28;;;;;;;10.60;4.90;;;;;;;3.07;63.81;100762.70;1722949;83;27442;-60
2023/03/29 06:50:54;;;;;;;9.15;4.40;;;;;;;3.22;63.32;100761.56;1722807;83;25642;-60
2023/03/29 06:53:42;;;;;;;11.10;4.92;;;;;;;3.44;64.02;100758.89;1719039;83;25607;-59
2023/03/29 06:56:08;;;;;;;12.45;5.65;;;;;;;3.80;63.18;100763.80;1695719;84;25865;-60
2023/03/29 06:58:36;;;;;;;9.90;5.55;;;;;;;4.15;63.30;100759.33;1719124;83;25597;-60
2023/03/29 07:01:05;;;;;;;12.50;5.53;;;;;;;4.46;61.89;100765.77;1695731;84;28020;-60
2023/03/29 07:03:34;;;;;;;66.22;61.58;;;;;;;4.71;61.46;100762.18;1719060;83;25663;-59
2023/03/29 07:06:08;;;;;;;83.72;77.50;;;;;;;5.08;61.06;100760.79;1695726;84;25520;-59
2023/03/29 07:08:33;;;;;;;16.80;15.20;;;;;;;5.39;60.28;100768.42;1688028;85;26089;-59
2023/03/29 07:11:00;;;;;;;7.92;4.60;;;;;;;5.76;59.83;100768.82;1695838;84;25647;-58
2023/03/29 07:13:26;;;;;;;14.15;4.95;;;;;;;6.00;58.37;100765.67;1719092;83;27328;-59
2023/03/29 07:15:53;;;;;;;12.03;5.15;;;;;;;6.32;58.68;100767.33;1695647;84;25801;-58
2023/03/29 07:18:21;;;;;;;10.30;4.97;;;;;;;6.66;57.06;100759.50;1743015;81;25189;-59
2023/03/29 07:20:47;;;;;;;10.55;5.55;;;;;;;6.99;57.15;100764.55;1729325;83;25560;-59
2023/03/29 07:23:13;;;;;;;7.10;4.22;;;;;;;7.15;55.74;100766.13;1729394;83;25632;-57
2023/03/29 07:25:41;;;;;;;8.70;4.78;;;;;;;7.29;54.97;100761.75;1729326;83;27327;-59
2023/03/29 07:28:08;;;;;;;9.03;4.25;;;;;;;7.46;54.25;100764.66;1726610;82;25562;-58
2023/03/29 07:30:35;;;;;;;8.45;4.60;;;;;;;7.79;54.78;100760.42;1729339;83;25617;-59
2023/03/29 07:33:03;;;;;;;14.63;5.55;;;;;;;8.06;53.92;100762.43;1726632;82;25529;-58
2023/03/29 07:35:31;;;;;;;12.20;4.87;;;;;;;8.35;53.26;100757.08;1729334;83;25552;-58
2023/03/29 07:37:58;;;;;;;8.48;4.80;;;;;;;8.57;52.84;100762.05;1726188;83;27437;-61
2023/03/29 07:40:25;;;;;;;12.28;4.72;;;;;;;8.95;52.99;100756.25;1728441;83;25984;-60
2023/03/29 07:42:57;;;;;;;10.35;4.33;;;;;;;9.34;52.24;100769.31;1729330;83;25402;-61
2023/03/29 07:45:28;;;;;;;13.48;5.55;;;;;;;9.25;49.10;100766.45;1737824;82;25894;-61
2023/03/29 07:47:59;;;;;;;7.72;4.40;;;;;;;9.20;49.63;100761.67;1737795;82;25448;-61
2023/03/29 07:50:28;;;;;;;10.48;4.87;;;;;;;9.56;48.96;100764.72;1737757;82;27335;-62
2023/03/29 07:52:55;;;;;;;9.55;5.58;;;;;;;9.50;46.66;100761.81;1732694;81;25398;-60
2023/03/29 07:55:22;;;;;;;8.85;5.25;;;;;;;9.53;48.68;100767.99;1729340;83;25557;-60
2023/03/29 07:57:50;;;;;;;10.98;3.92;;;;;;;9.82;47.68;100758.41;1729457;83;25635;-59
2023/03/29 08:00:19;;;;;;;10.78;4.55;;;;;;;10.08;46.96;100765.61;1729279;83;25542;-60
2023/03/29 08:02:51;;;;;;;10.43;4.47;;;;;;;10.78;46.27;100766.64;1729537;82;27246;-60
2023/03/29 08:05:22;;;;;;;10.03;4.90;;;;;;;11.40;45.67;100761.38;1729525;83;25468;-60
2023/03/29 08:07:49;;;;;;;10.82;5.37;;;;;;;11.80;44.24;100761.61;1729610;83;25454;-60
2023/03/29 08:10:20;;;;;;;9.20;5.08;;;;;;;12.48;44.40;100762.47;1729519;83;25724;-58
2023/03/29 08:12:49;;;;;;;10.25;4.30;;;;;;;13.05;43.76;100753.61;1729571;83;25470;-60
2023/03/29 08:15:18;;;;;;;8.13;4.83;;;;;;;13.59;42.36;100752.67;1729556;82;27955;-59
2023/03/29 08:17:46;;;;;;;8.03;4.78;;;;;;;13.76;41.22;100753.25;1729470;83;25617;-59
2023/03/29 08:20:15;;;;;;;15.08;4.80;;;;;;;14.37;41.91;100751.86;1729623;83;25588;-62
2023/03/29 08:22:43;;;;;;;10.20;4.08;;;;;;;14.73;39.71;100758.27;1729673;83;26164;-59
2023/03/29 08:25:11;;;;;;;8.15;4.35;;;;;;;14.59;39.42;100757.65;1729575;83;25415;-60
2023/03/29 08:27:40;;;;;;;9.78;4.00;;;;;;;14.71;39.29;100756.44;1729776;83;27406;-60
2023/03/29 08:30:09;;;;;;;10.68;3.80;;;;;;;14.48;35.91;100744.14;1729552;83;25776;-60
2023/03/29 08:32:37;;;;;;;;;;;;;;;13.89;36.29;100746.05;1732109;83;25624;-60
2023/03/29 08:35:08;;;;;;;8.98;3.85;;;;;;;13.60;38.59;100748.28;1729492;83;25618;-60
2023/03/29 08:37:36;;;;;;;7.37;3.65;;;;;;;13.79;39.88;100747.16;1729603;83;25469;-61
2023/03/29 08:40:05;;;;;;;8.58;3.95;;;;;;;13.96;38.92;100741.73;1729515;83;27346;-60
2023/03/29 08:42:55;;;;;;;5.00;2.90;;;;;;;13.76;37.44;100741.81;1729591;83;25810;-60
2023/03/29 08:45:40;;;;;;;9.65;4.17;;;;;;;13.83;39.02;100739.41;1729579;83;25518;-61
2023/03/29 08:48:27;;;;;;;4.75;3.25;;;;;;;14.39;39.13;100738.14;1729570;83;26278;-61
2023/03/29 08:50:59;;;;;;;5.80;2.85;;;;;;;14.90;38.37;100729.38;1686470;85;25628;-61
2023/03/29 08:53:44;;;;;;;6.12;3.02;;;;;;;14.85;33.57;100733.07;1695846;84;27421;-61
2023/03/29 08:56:21;;;;;;;8.80;3.40;;;;;;;14.31;34.72;100731.37;1701808;84;25497;-61
2023/03/29 08:58:53;;;;;;;6.30;3.10;;;;;;;14.05;35.07;100728.70;1702161;84;25233;-59
2023/03/29 09:01:22;;;;;;;6.67;3.30;;;;;;;14.11;36.15;100730.11;1701926;84;25631;-60
2023/03/29 09:04:12;;;;;;;7.55;2.75;;;;;;;14.57;36.76;100732.11;1702074;84;25708;-60
2023/03/29 09:06:41;;;;;;;6.78;2.70;;;;;;;14.60;34.19;100732.61;1701971;84;27334;-61
2023/03/29 09:09:16;;;;;;;7.53;2.65;;;;;;;14.44;34.40;100732.28;1701986;83;25601;-59
2023/03/29 09:11:51;;;;;;;7.25;3.08;;;;;;;14.94;35.46;100727.58;1701967;84;25487;-59
2023/03/29 09:15:00;;;;;;;5.70;3.35;;;;;;;15.57;34.86;100718.72;1693746;83;25634;-59
2023/03/29 09:17:57;;;;;;;8.73;4.37;;;;;;;15.73;34.37;100718.91;1701936;83;25646;-60
2023/03/29 09:20:34;;;;;;;7.83;3.95;;;;;;;15.11;33.38;100723.97;1701961;84;29510;-59
2023/03/29 09:23:22;;;;;;;7.05;3.35;;;;;;;15.32;34.90;100715.83;1701338;83;25466;-61
2023/03/29 09:26:07;;;;;;;3.17;1.90;;;;;;;15.78;34.65;100716.83;1664695;86;25648;-59
2023/03/29 09:32:08;;;;;;;5.17;1.92;;;;;;;15.93;30.63;100702.33;1720258;83;25657;-59
2023/03/29 09:34:45;;;;;;;7.22;2.75;;;;;;;14.55;30.53;100710.41;1719093;83;27708;-61
2023/03/29 09:37:33;;;;;;;5.95;2.40;;;;;;;14.46;32.08;100712.37;1719920;83;25564;-59
2023/03/29 09:40:07;;;;;;;9.73;2.37;;;;;;;14.75;32.17;100709.72;1720082;83;25484;-59
2023/03/29 09:42:37;;;;;;;6.00;3.30;;;;;;;14.90;31.86;100705.66;1719776;83;25679;-60
2023/03/29 09:45:08;;;;;;;8.35;3.15;;;;;;;15.23;32.06;100698.17;1720105;83;25662;-63
2023/03/29 09:47:40;;;;;;;6.85;3.15;;;;;;;15.38;31.89;100696.01;1720026;83;27322;-59
2023/03/29 09:50:20;;;;;;;6.55;3.10;;;;;;;15.02;30.73;100691.91;1720000;83;25637;-60
2023/03/29 09:52:49;;;;;;;5.10;2.85;;;;;;;15.03;30.08;100701.09;1719797;82;25706;-61
2023/03/29 09:55:18;;;;;;;3.87;2.60;;;;;;;15.45;30.28;100692.19;1720164;83;25593;-59
2023/03/29 09:57:45;;;;;;;5.30;3.37;;;;;;;15.85;31.02;100691.71;1719991;83;25701;-59
2023/03/29 10:00:15;;;;;;;7.12;3.17;;;;;;;16.33;30.04;100690.28;1719924;83;27472;-60
2023/03/29 10:02:57;;;;;;;6.67;2.75;;;;;;;16.89;29.49;100688.98;1724629;82;25780;-61
2023/03/29 10:05:30;;;;;;;5.97;2.40;;;;;;;16.85;28.13;100688.09;1737627;82;25464;-58
2023/03/29 10:08:00;;;;;;;5.55;2.67;;;;;;;16.80;28.82;100684.42;1736320;82;25806;-59
2023/03/29 10:10:35;;;;;;;7.28;2.58;;;;;;;17.02;27.74;100692.52;1737653;82;25382;-60
2023/03/29 10:13:13;;;;;;;3.92;2.75;;;;;;;17.09;28.45;100679.86;1712304;82;27501;-59
2023/03/29 10:15:39;;;;;;;5.67;2.52;;;;;;;16.82;27.14;100679.96;1737554;82;25541;-59
2023/03/29 10:18:11;;;;;;;4.35;2.40;;;;;;;16.94;26.83;100677.83;1737569;82;25706;-59
2023/03/29 10:20:44;;;;;;;4.20;2.42;;;;;;;16.72;26.57;100692.70;1737585;82;25614;-59
2023/03/29 10:23:16;;;;;;;4.65;2.62;;;;;;;16.77;26.79;100678.27;1737661;82;25641;-56
2023/03/29 10:25:45;;;;;;;6.25;2.95;;;;;;;17.17;26.35;100689.88;1708139;84;27403;-59
2023/03/29 10:28:19;;;;;;;3.67;2.40;;;;;;;17.46;27.37;100681.74;1708069;84;25741;-58
2023/03/29 10:30:54;;;;;;;4.97;2.60;;;;;;;17.39;25.34;100676.07;1708160;84;25572;-62
2023/03/29 10:33:26;;;;;;;8.88;2.58;;;;;;;17.41;26.07;100677.30;1708072;84;25630;-61
2023/03/29 10:35:57;;;;;;;4.55;2.40;;;;;;;17.90;26.18;100672.27;1708195;84;25636;-62
2023/03/29 10:38:27;;;;;;;7.75;3.02;;;;;;;18.42;24.88;100681.42;1708117;84;27343;-62
2023/03/29 10:41:10;;;;;;;3.77;2.25;;;;;;;18.52;24.80;100684.22;1708091;84;25635;-61
2023/03/29 10:43:48;;;;;;;9.83;2.77;;;;;;;18.42;24.90;100682.80;1708164;84;25467;-59
2023/03/29 10:46:34;;;;;;;5.45;2.75;;;;;;;18.40;24.56;100676.30;1707178;84;25639;-60
2023/03/29 10:49:09;;;;;;;7.17;2.33;;;;;;;18.11;23.27;100668.71;1681092;84;25626;-58
2023/03/29 10:51:36;;;;;;;6.22;2.70;;;;;;;17.83;23.88;100670.09;1706135;84;28406;-59
2023/03/29 10:54:08;;;;;;;4.97;2.67;;;;;;;18.26;23.00;100680.05;1704705;84;25626;-57
2023/03/29 10:56:57;;;;;;;3.52;2.45;;;;;;;18.24;22.85;100677.66;1703863;84;25468;-60
2023/03/29 10:59:37;;;;;;;2.65;2.40;;;;;;;17.90;21.97;100679.89;1703921;84;34717;-59
2023/03/29 11:02:24;;;;;;;4.83;2.72;;;;;;;17.85;23.45;100669.17;1703942;84;25399;-61
2023/03/29 11:05:06;;;;;;;4.70;2.67;;;;;;;18.35;23.49;100673.03;1704223;84;27341;-62
2023/03/29 11:08:01;;;;;;;4.15;2.95;;;;;;;18.94;22.56;100661.19;1703362;84;25540;-60
2023/03/29 11:10:49;;;;;;;5.55;2.92;;;;;;;19.16;23.19;100658.34;1703889;84;25584;-62
2023/03/29 11:13:37;;;;;;;3.75;2.62;;;;;;;19.19;21.54;100661.75;1704130;84;25690;-60
2023/03/29 11:16:20;;;;;;;3.27;2.30;;;;;;;18.81;20.61;100668.70;1704126;84;25475;-62
2023/03/29 11:19:06;;;;;;;5.47;2.90;;;;;;;18.25;20.44;100653.25;1702518;84;27543;-61
2023/03/29 11:21:58;;;;;;;5.83;3.30;;;;;;;17.79;21.61;100660.19;1702742;84;25400;-59
2023/03/29 11:24:36;;;;;;;7.67;3.08;;;;;;;17.78;22.28;100659.41;1667120;86;25431;-64
2023/03/29 11:27:23;;;;;;;5.72;3.08;;;;;;;17.95;22.90;100652.07;1675557;85;25628;-63
2023/03/29 11:30:19;;;;;;;4.83;2.98;;;;;;;18.14;23.29;100646.70;1643695;87;25755;-66
2023/03/29 11:33:02;;;;;;;11.30;8.75;;;;;;;18.44;23.65;100653.13;1629991;88;27356;-64
2023/03/29 11:35:42;;;;;;;14.35;10.40;;;;;;;18.33;21.80;100642.48;1629918;88;25574;-63
2023/03/29 11:38:33;;;;;;;6.00;3.37;;;;;;;17.96;19.94;100642.70;1629793;88;25735;-58
2023/03/29 11:41:20;;;;;;;5.55;3.35;;;;;;;17.47;22.42;100634.91;1625081;88;25682;-61
2023/03/29 11:43:53;;;;;;;6.72;4.12;;;;;;;17.85;22.64;100643.76;1643917;87;25643;-62
2023/03/29 11:46:49;;;;;;;6.83;2.90;;;;;;;17.82;22.51;100643.08;1643849;86;27516;-60
2023/03/29 11:49:33;;;;;;;4.78;2.70;;;;;;;18.02;23.12;100630.36;1629844;88;25950;-65